Tiempo atmosférico en la estación meteorológica de Autilla del Pino, Palencia (874 m.)



Fecha
DESCASC
Temp. máxima en grados centígrados (hora)
DESCASC
Temp. mínima en grados centígrados (hora)
DESCASC
Temp. media en grados centígrados
DESCASC
Racha de viento máxima en m/sg (hora)
DESCASC
Velocidad máxima media en intervalos de 10 minutos(hora)
DESCASC
Precipitaciones diarias en mm
DESCASC
Precipitaciones de 00:00 a 06:00 en mm
DESCASC
Precipitaciones de 06:00 a 12:00 en mm
DESCASC
Precipitaciones de 12:00 a 18:00 en mm
DESCASC
Precipitaciones de 18:00 a 24:00 en mm
DESCASC
13-10-2019 22.6 (16:30) 11 (09:10) 16.8 12.5 (17:00) 9.44 (18:40) 0 0 0 0 0
12-10-2019 26.5 (16:00) 13.4 (05:00) 19.9 18.06 (18:10) 11.11 (15:30) 0 0 0 0 0
10-10-2019 22.6 (17:20) 5.8 (00:00) 14.2 16.67 (00:30) 7.22 (02:20) 0 0 0 0 0
09-10-2019 20.3 (16:30) 9.1 (00:00) 14.7 10 (22:40) 7.78 (22:30) 0 0 0 0 0
08-10-2019 26.8 (15:50) 11.3 (00:00) 19 9.72 (21:30) 6.39 (21:30) 0 0 0 0 0
07-10-2019 24.5 (18:10) 7 (00:00) 15.8 5.83 (01:20) 4.72 (01:10) 0 0 0 0 0
06-10-2019 22.1 (18:20) 7.9 (00:00) 15 7.78 (22:40) 6.39 (22:40) 0 0 0 0 0
05-10-2019 23 (17:50) 8.5 (08:30) 15.8 7.22 (16:10) 4.72 (02:40) 0 0 0 0 0
04-10-2019 23.4 (17:40) 7.1 (00:00) 15.2 7.5 (17:20) 4.44 (00:40) 0 0 0 0 0
03-10-2019 23.2 (17:50) 6.1 (00:00) 14.7 8.06 (15:00) 5.28 (00:40) 0 0 0 0 0
02-10-2019 20.7 (17:40) 5.9 (00:00) 13.3 9.17 (01:00) 6.94 (01:00) 0 0 0 0 0
01-10-2019 23.1 (17:50) 11.4 (00:00) 17.3 10.28 (16:00) 7.5 (16:50) 0 0 0 0 0
30-09-2019 26.3 (17:10) 9.3 (00:00) 17.8 11.11 (18:10) 4.72 (02:10) 0 0 0 0 0
29-09-2019 26.6 (16:50) 8.2 (00:00) 17.4 11.11 (15:40) 6.94 (17:50) 0 0 0 0 0
28-09-2019 25 (18:20) 7 (00:00) 16 5.56 (18:30) 3.89 (00:20) 0 0 0 0 0
27-09-2019 23.5 (16:50) 6.2 (00:00) 14.8 8.89 (14:20) 6.11 (01:20) 0 0 0 0 0
26-09-2019 24.2 (17:50) 8.2 (00:00) 16.2 8.06 (14:30) 5 (16:00) 0 0 0 0 0
25-09-2019 19.4 (17:00) 7.8 (00:00) 13.6 8.61 (04:10) 6.39 (04:20) 0 0 0 0 0
24-09-2019 21.9 (15:20) 9.9 (00:00) 15.9 16.67 (16:20) 12.78 (16:20) 0 0 0 0 0
23-09-2019 20.4 (17:50) 6.9 (00:00) 13.6 8.61 (14:30) 6.11 (13:50) 0 0 0 0 0
22-09-2019 18.5 (17:10) 9 (00:00) 13.8 11.67 (03:00) 8.06 (02:50) 9.4 9.4 0 0 0
21-09-2019 18.5 (18:10) 13.5 (00:00) 16 12.78 (14:50) 8.89 (14:50) 0.5 0.1 0 0.2 0.2
20-09-2019 27.1 (16:10) 13 (00:00) 20.1 17.5 (20:00) 8.33 (16:30) 11.4 0 0 0 11.4
19-09-2019 25.7 (17:40) 11.2 (00:00) 18.5 7.5 (12:50) 5.28 (11:20) 0 0 0 0 0
18-09-2019 24.5 (18:30) 12.7 (00:00) 18.6 8.89 (03:40) 6.11 (03:40) 2 2 0 0 0
17-09-2019 28 (17:00) 13.2 (00:00) 20.6 15 (22:00) 10.56 (22:30) 1.3 0 0 0 1.3
16-09-2019 25.1 (17:00) 12.4 (00:00) 18.8 6.11 (10:40) 4.44 (10:40) 0 0 0 0 0

Gráficas

Temp. máximas Temp. mínimas Temp. medias Precipitaciones Rachas de viento máximas Velocidades máximas media en intervalos de 10 minutos

Datos horarios

Fecha y hora oficial Temperatura (ºC) Velocidad del viento (km/h) Dirección del viento Racha (km/h) Dirección de racha Precipitación (mm) Presión (hPa) Tendencia (hPa) Humedad (%)
2019-10-15 23:00:00 9.7 17 Sudoeste 23 Oeste 0 -- -- 74
2019-10-15 22:00:00 9.6 14 Sudoeste 18 Sudoeste 0 -- -- 74
2019-10-15 21:00:00 9.5 15 Sudoeste 20 Oeste 0 -- -- 73
2019-10-15 20:00:00 9.9 18 Oeste 29 Oeste 0 -- -- 69
2019-10-15 19:00:00 11.1 23 Oeste 34 Oeste 0 -- -- 61
2019-10-15 18:00:00 11.9 24 Oeste 33 Oeste 0 -- -- 57
2019-10-15 17:00:00 12.2 19 Oeste 34 Oeste 0 -- -- 54
2019-10-15 16:00:00 12.9 21 Oeste 34 Oeste 0 -- -- 51
2019-10-15 15:00:00 11.9 22 Oeste 32 Oeste 0 -- -- 54
2019-10-15 14:00:00 11.6 19 Oeste 30 Oeste 0 -- -- 60
2019-10-15 13:00:00 10 18 Oeste 32 Oeste 0 -- -- 76
2019-10-15 12:00:00 9.3 25 Oeste 35 Oeste 0 -- -- 82
2019-10-15 11:00:00 7.7 27 Oeste 34 Oeste 0 -- -- 88
2019-10-15 10:00:00 5.7 22 Oeste 28 Oeste 0 -- -- 95
2019-10-15 09:00:00 4.1 17 Oeste 36 Oeste 0 -- -- 98
2019-10-15 08:00:00 3.6 27 Oeste 39 Oeste 0 -- -- 98
2019-10-15 07:00:00 3.7 26 Oeste 36 Oeste 0 -- -- 97
2019-10-15 06:00:00 3.8 28 Oeste 39 Oeste 0 -- -- 95
2019-10-15 05:00:00 3.8 28 Oeste 34 Oeste 0 -- -- 94
2019-10-15 04:00:00 4 27 Oeste 37 Oeste 0 -- -- 95
2019-10-15 03:00:00 4.1 31 Oeste 44 Oeste 0 -- -- 93
2019-10-15 02:00:00 4.4 29 Oeste 45 Oeste 0 -- -- 93
2019-10-15 01:00:00 4.7 32 Oeste 42 Oeste 0 -- -- 92
2019-10-15 00:00:00 4.8 29 Oeste 39 Oeste 0 -- -- 92
2019-10-14 23:00:00 5.3 27 Oeste 36 Oeste 0 -- -- 95
2019-10-14 22:00:00 6.4 29 Oeste 45 Oeste 0 -- -- 91
2019-10-14 21:00:00 7.1 28 Oeste 36 Oeste 0 -- -- 92
2019-10-14 20:00:00 7.5 23 Oeste 40 Oeste 0 -- -- 89
2019-10-14 19:00:00 7.7 31 Oeste 56 Oeste 0 -- -- 85
2019-10-14 18:00:00 9.5 28 Sudoeste 42 Sudoeste 0.4 -- -- 93
2019-10-14 17:00:00 9.8 32 Sudoeste 45 Sudoeste 0.5 -- -- 94
2019-10-14 16:00:00 9.8 19 Sudoeste 46 Sudoeste 1.4 -- -- 95
2019-10-14 15:00:00 10.2 34 Oeste 46 Sudoeste 0.1 -- -- 86
2019-10-14 14:00:00 14 32 Sudoeste 49 Sudoeste 0 -- -- 55
2019-10-14 13:00:00 13.1 37 Oeste 55 Sudoeste 0 -- -- 62
2019-10-14 12:00:00 13.5 35 Oeste 46 Oeste 0 -- -- 64
2019-10-14 11:00:00 10.6 31 Oeste 66 Sudoeste 0 -- -- 83
2019-10-14 10:00:00 14.2 44 Sudoeste 59 Sudoeste 0 -- -- 68
2019-10-14 09:00:00 12.7 12 Sudoeste 19 Sudoeste 0 -- -- 74
2019-10-14 08:00:00 11.9 13 Sudoeste 19 Oeste 0 -- -- 71
2019-10-14 07:00:00 11.9 13 Sudoeste 18 Sudeste 0 -- -- 71
2019-10-14 06:00:00 13.1 12 Sur 21 Sur 0 -- -- 66
2019-10-14 05:00:00 12.8 9 Sur 15 Sur 0 -- -- 67
2019-10-14 04:00:00 13.3 13 Sur 15 Sur 0 -- -- 64
2019-10-14 03:00:00 13.3 13 Sur 17 Sur 0 -- -- 63
2019-10-14 02:00:00 13.4 15 Sur 19 Sur 0 -- -- 62
2019-10-14 01:00:00 12.8 15 Sur 22 Sudoeste 0 -- -- 61
2019-10-14 00:00:00 13.1 19 Sudoeste 23 Sudoeste 0 -- -- 62
2019-10-13 23:00:00 11.9 10 Sudoeste 20 Sudoeste 0 -- -- 61
2019-10-13 22:00:00 13.3 14 Sudoeste 20 Sudoeste 0 -- -- 53
2019-10-13 21:00:00 15 17 Sudoeste 23 Sudoeste 0 -- -- 45
2019-10-13 20:00:00 16.2 12 Sudoeste 39 Sudoeste 0 -- -- 39
2019-10-13 19:00:00 20.4 30 Sudoeste 43 Sudoeste 0 -- -- 32
2019-10-13 18:00:00 21.5 30 Sudoeste 44 Sudoeste 0 -- -- 34
2019-10-13 17:00:00 22 31 Sudoeste 45 Sudoeste 0 -- -- 35
2019-10-13 16:00:00 21.9 29 Sudoeste 45 Sudoeste 0 -- -- 36
2019-10-13 15:00:00 21.4 24 Sudoeste 39 Sudoeste 0 -- -- 42
2019-10-13 14:00:00 20 20 Sudoeste 36 Sudoeste 0 -- -- 50
2019-10-13 13:00:00 18.4 21 Sudoeste 31 Sudoeste 0 -- -- 55
2019-10-13 12:00:00 16.8 10 Oeste 21 Oeste 0 -- -- 66
2019-10-13 11:00:00 14.7 16 Oeste 26 Sudoeste 0 -- -- 75
2019-10-13 10:00:00 13.3 18 Sudoeste 22 Sudoeste 0 -- -- 86
2019-10-13 09:00:00 11.1 8 Sudoeste 21 Sudoeste 0 -- -- 93
2019-10-13 08:00:00 12.7 16 Sudoeste 29 Oeste 0 -- -- 89
2019-10-13 07:00:00 13 19 Oeste 25 Oeste 0 -- -- 85
2019-10-13 06:00:00 12.6 22 Sudoeste 30 Oeste 0 -- -- 72
2019-10-13 05:00:00 12.7 21 Sur 27 Sudoeste 0 -- -- 70
2019-10-13 04:00:00 13.3 21 Sudoeste 27 Sudoeste 0 -- -- 67
2019-10-13 03:00:00 13.7 17 Sur 31 Sudoeste 0 -- -- 64
2019-10-13 02:00:00 15.3 24 Sur 31 Sur 0 -- -- 61
2019-10-13 01:00:00 15.1 17 Sudoeste 31 Sudoeste 0 -- -- 61
2019-10-13 00:00:00 16.9 25 Sur 33 Sur 0 -- -- 55
2019-10-12 23:00:00 16.6 18 Sur 28 Sur 0 -- -- 53
2019-10-12 22:00:00 17.5 19 Sur 30 Sur 0 -- -- 51
2019-10-12 21:00:00 17.6 18 Sudoeste 31 Sudoeste 0 -- -- 48
2019-10-12 20:00:00 20.1 22 Sudoeste 33 Sudoeste 0 -- -- 44
2019-10-12 19:00:00 21.8 15 Sur 65 Sur 0 -- -- 46
2019-10-12 18:00:00 25.2 28 Sudoeste 50 Sudoeste 0 -- -- 31
2019-10-12 17:00:00 25.9 36 Sudoeste 53 Sudoeste 0 -- -- 30
2019-10-12 16:00:00 26.4 31 Sudoeste 54 Sudoeste 0 -- -- 33
2019-10-12 15:00:00 26.2 34 Sudoeste 46 Sudoeste 0 -- -- 35
2019-10-12 14:00:00 24.7 28 Sudoeste 38 Sudoeste 0 -- -- 38
2019-10-12 13:00:00 23.7 17 Sudoeste 30 Sudoeste 0 -- -- 44
2019-10-12 12:00:00 21.7 20 Sudoeste 29 Sudoeste 0 -- -- 48
2019-10-12 11:00:00 18.7 15 Sudoeste 21 Sudoeste 0 -- -- 63
2019-10-12 10:00:00 15.6 17 Sur 22 Sudoeste 0 -- -- 76
2019-10-12 09:00:00 15 17 Sudoeste 20 Sudoeste 0 -- -- 76
2019-10-12 08:00:00 14.3 17 Sudoeste 24 Sudoeste 0 -- -- 77
2019-10-12 07:00:00 14.9 20 Sudoeste 26 Sudoeste 0 -- -- 77
2019-10-12 06:00:00 14.6 14 Sudoeste 22 Sudoeste 0 -- -- 79
2019-10-12 05:00:00 13.4 10 Sudoeste 21 Sudoeste 0 -- -- 84
2019-10-12 04:00:00 14.1 13 Sudoeste 15 Sudoeste 0 -- -- 84
2019-10-12 03:00:00 14 12 Sudoeste 16 Sudoeste 0 -- -- 83
2019-10-12 02:00:00 15 15 Sur 20 Sudoeste 0 -- -- 80
2019-10-12 01:00:00 15.1 16 Sudoeste 21 Sudoeste 0 -- -- 80
2019-10-12 00:00:00 15 14 Sudoeste 21 Sudoeste 0 -- -- 78
2019-10-11 23:00:00 15.8 17 Sudoeste 21 Sudoeste 0 -- -- 75
2019-10-11 22:00:00 17.6 15 Sur 38 Sudoeste 0 -- -- 71
2019-10-11 21:00:00 18.3 35 Sudoeste 49 Sudoeste 0 -- -- 61
2019-10-11 20:00:00 22.1 7 Sudoeste 13 Oeste 0 -- -- 38
2019-10-11 19:00:00 24.3 10 Oeste 22 Sudoeste 0 -- -- 35
2019-10-11 18:00:00 26 18 Oeste 33 Sudoeste 0 -- -- 33
2019-10-11 17:00:00 26.4 23 Oeste 40 Oeste 0 -- -- 33
2019-10-11 16:00:00 26.9 22 Oeste 37 Oeste 0 -- -- 32
2019-10-11 15:00:00 26.3 12 Oeste 28 Sudoeste 0 -- -- 33
2019-10-11 14:00:00 24.9 11 Sudoeste 22 Sudoeste 0 -- -- 35
2019-10-11 13:00:00 23.2 9 Sudoeste 18 Sudoeste 0 -- -- 38
2019-10-11 12:00:00 20.4 10 Sur 14 Sur 0 -- -- 46
2019-10-11 11:00:00 17.2 5 Sudeste 9 Sudeste 0 -- -- 58
2019-10-11 10:00:00 13.8 6 Sudeste 10 Sudeste 0 -- -- 70
2019-10-11 09:00:00 10.7 6 Sudeste 12 Sudeste 0 -- -- 80
2019-10-11 08:00:00 8.9 10 Sudeste 13 Sudeste 0 -- -- 82
2019-10-11 07:00:00 9 11 Sudeste 14 Sudeste 0 -- -- 78
2019-10-11 06:00:00 8.8 10 Este 14 Sudeste 0 -- -- 75
2019-10-11 05:00:00 10 13 Sudeste 14 Sudeste 0 -- -- 68
2019-10-11 04:00:00 9.3 13 Este 14 Este 0 -- -- 67
2019-10-11 03:00:00 9.6 11 Este 13 Este 0 -- -- 61
2019-10-11 02:00:00 11.3 10 Este 12 Este 0 -- -- 54
2019-10-11 01:00:00 11.2 8 Este 11 Sudeste 0 -- -- 51
2019-10-11 00:00:00 13.4 10 Sudeste 12 Sudeste 0 -- -- 48
2019-10-10 23:00:00 12.7 11 Este 15 Este 0 -- -- 47
2019-10-10 22:00:00 12.9 12 Este 14 Este 0 -- -- 43
2019-10-10 21:00:00 15.4 10 Nordeste 10 Nordeste 0 -- -- 38
2019-10-10 20:00:00 16.4 9 Nordeste 12 Nordeste 0 -- -- 37
2019-10-10 19:00:00 20.3 10 Nordeste 15 Nordeste 0 -- -- 33
2019-10-10 18:00:00 21.5 9 Nordeste 21 Este 0 -- -- 30
2019-10-10 17:00:00 22.2 9 Este 28 Este 0 -- -- 30
2019-10-10 16:00:00 21.1 8 Nordeste 19 Nordeste 0 -- -- 33
2019-10-10 15:00:00 20.2 9 Este 20 Este 0 -- -- 38
2019-10-10 14:00:00 18.5 12 Nordeste 26 Este 0 -- -- 46
2019-10-10 13:00:00 16.6 17 Este 23 Este 0 -- -- 51
2019-10-10 12:00:00 14.9 14 Este 22 Este 0 -- -- 57
2019-10-10 11:00:00 12.3 14 Este 22 Este 0 -- -- 66
2019-10-10 10:00:00 9.4 14 Este 19 Este 0 -- -- 77
2019-10-10 09:00:00 7.4 13 Este 17 Este 0 -- -- 86
2019-10-10 08:00:00 6.2 10 Este 17 Este 0 -- -- 90
2019-10-10 07:00:00 6.1 13 Este 20 Este 0 -- -- 88
2019-10-10 06:00:00 6.9 14 Este 27 Este 0 -- -- 87
2019-10-10 05:00:00 7.3 22 Este 28 Este 0 -- -- 84
2019-10-10 04:00:00 8 23 Este 31 Este 0 -- -- 81
2019-10-10 03:00:00 8 24 Este 34 Este 0 -- -- 80
2019-10-10 02:00:00 8.5 24 Este 31 Este 0 -- -- 77
2019-10-10 01:00:00 8.6 22 Este 60 Este 0 -- -- 74
2019-10-10 00:00:00 9.3 23 Este 33 Este 0 -- -- 69
2019-10-09 23:00:00 9.8 23 Este 36 Este 0 -- -- 67
2019-10-09 22:00:00 10.6 26 Este 33 Este 0 -- -- 64
2019-10-09 21:00:00 12 24 Este 31 Este 0 -- -- 60
2019-10-09 20:00:00 15.7 14 Nordeste 21 Nordeste 0 -- -- 44
2019-10-09 19:00:00 18.1 13 Nordeste 19 Nordeste 0 -- -- 40
2019-10-09 18:00:00 19.4 11 Nordeste 20 Nordeste 0 -- -- 38
2019-10-09 17:00:00 19.5 12 Nordeste 21 Nordeste 0 -- -- 39
2019-10-09 16:00:00 19.7 7 Nordeste 19 Este 0 -- -- 41
2019-10-09 15:00:00 18.5 9 Nordeste 20 Nordeste 0 -- -- 46
2019-10-09 14:00:00 16.9 10 Nordeste 20 Nordeste 0 -- -- 51
2019-10-09 13:00:00 15.7 9 Nordeste 17 Nordeste 0 -- -- 60
2019-10-09 12:00:00 15.2 7 Este 19 Este 0 -- -- 68
2019-10-09 11:00:00 13.1 5 Este 12 Este 0 -- -- 85
2019-10-09 10:00:00 11.7 5 Nordeste 7 Nordeste 0 -- -- 93
2019-10-09 09:00:00 10.4 2 Norte 8 Norte 0 -- -- 96
2019-10-09 08:00:00 10.2 5 Noroeste 12 Sudeste 0 -- -- 96
2019-10-09 07:00:00 9.8 11 Este 15 Este 0 -- -- 95
2019-10-09 06:00:00 10.2 9 Noroeste 14 Noroeste 0 -- -- 95
2019-10-09 05:00:00 10.2 4 Norte 9 Norte 0 -- -- 95
2019-10-09 04:00:00 10.5 8 Este 16 Este 0 -- -- 94
2019-10-09 03:00:00 10.6 9 Nordeste 14 Nordeste 0 -- -- 93
2019-10-09 02:00:00 11.3 10 Nordeste 20 Nordeste 0 -- -- 91
2019-10-09 01:00:00 11.7 6 Nordeste 27 Nordeste 0 -- -- 90
2019-10-09 00:00:00 13 20 Nordeste 27 Nordeste 0 -- -- 88
2019-10-08 23:00:00 14.4 21 Nordeste 28 Nordeste 0 -- -- 83
2019-10-08 22:00:00 18.4 19 Noroeste 35 Oeste 0 -- -- 49
2019-10-08 21:00:00 20.8 19 Oeste 24 Oeste 0 -- -- 45
2019-10-08 20:00:00 21.6 16 Oeste 19 Sudoeste 0 -- -- 38
2019-10-08 19:00:00 26 5 Oeste 17 Oeste 0 -- -- 34
2019-10-08 18:00:00 26.2 14 Oeste 29 Oeste 0 -- -- 32
2019-10-08 17:00:00 26.1 18 Oeste 32 Oeste 0 -- -- 34
2019-10-08 16:00:00 26.3 21 Oeste 33 Oeste 0 -- -- 35
2019-10-08 15:00:00 25.4 18 Oeste 32 Oeste 0 -- -- 33
2019-10-08 14:00:00 24.7 12 Oeste 24 Oeste 0 -- -- 34
2019-10-08 13:00:00 23 8 Noroeste 19 Oeste 0 -- -- 36
2019-10-08 12:00:00 21.8 13 Sudoeste 19 Sur 0 -- -- 36
2019-10-08 11:00:00 18.3 10 Sur 15 Sur 0 -- -- 43
2019-10-08 10:00:00 15.1 8 Sur 12 Sudeste 0 -- -- 47
2019-10-08 09:00:00 11.9 8 Sudeste 14 Sur 0 -- -- 49
2019-10-08 08:00:00 13 8 Sur 12 Sudeste 0 -- -- 47
2019-10-08 07:00:00 12.1 9 Sudeste 14 Sudeste 0 -- -- 45
2019-10-08 06:00:00 12.1 8 Sudeste 12 Sudeste 0 -- -- 42
2019-10-08 05:00:00 12.5 10 Este 12 Este 0 -- -- 40
2019-10-08 04:00:00 13.5 9 Sudeste 14 Sudeste 0 -- -- 38
2019-10-08 03:00:00 13.4 10 Sudeste 12 Sudeste 0 -- -- 40
2019-10-08 02:00:00 14.9 12 Sudeste 15 Sudeste 0 -- -- 37
2019-10-08 01:00:00 16.6 13 Sudeste 16 Sudeste 0 -- -- 35
2019-10-08 00:00:00 16.2 12 Sudeste 15 Sudeste 0 -- -- 38
2019-10-07 23:00:00 18.3 7 Sudeste 12 Este 0 -- -- 37
2019-10-07 22:00:00 17.6 9 Este 11 Este 0 -- -- 35
2019-10-07 21:00:00 19.3 5 Sudeste 7 Sudeste 0 -- -- 33
2019-10-07 20:00:00 20.6 3 Este 6 Este 0 -- -- 31
2019-10-07 19:00:00 23.3 3 Nordeste 9 Nordeste 0 -- -- 28
2019-10-07 18:00:00 24.1 7 Noroeste 17 Norte 0 -- -- 28
2019-10-07 17:00:00 23.3 5 Norte 15 Noroeste 0 -- -- 27
2019-10-07 16:00:00 22.9 8 Norte 16 Noroeste 0 -- -- 26
2019-10-07 15:00:00 22.3 4 Noroeste 13 Oeste 0 -- -- 30
2019-10-07 14:00:00 21 5 Oeste 12 Oeste 0 -- -- 37
2019-10-07 13:00:00 18.7 2 Noroeste 14 Oeste 0 -- -- 45
2019-10-07 12:00:00 17.3 4 Noroeste 12 Oeste 0 -- -- 52
2019-10-07 11:00:00 15.4 3 Este 8 Este 0 -- -- 59
2019-10-07 10:00:00 12.7 5 Este 9 Este 0 -- -- 73
2019-10-07 09:00:00 9.6 6 Este 8 Este 0 -- -- 95
2019-10-07 08:00:00 7.7 3 Este 4 Nordeste 0 -- -- 95
2019-10-07 07:00:00 8.1 0 Calma 12 Este 0 -- -- 94
2019-10-07 06:00:00 9 11 Este 18 Este 0 -- -- 93
2019-10-07 05:00:00 9.7 15 Este 19 Este 0 -- -- 93
2019-10-07 04:00:00 9.6 10 Este 14 Este 0 -- -- 92
2019-10-07 03:00:00 10 10 Este 21 Este 0 -- -- 91
2019-10-07 02:00:00 10.6 16 Este 21 Este 0 -- -- 90
2019-10-07 01:00:00 10.9 14 Este 21 Este 0 -- -- 88
2019-10-07 00:00:00 11.6 15 Este 25 Este 0 -- -- 84
2019-10-06 23:00:00 12.8 22 Este 28 Este 0 -- -- 77
2019-10-06 22:00:00 14.3 17 Este 22 Este 0 -- -- 62
2019-10-06 21:00:00 17.7 3 Oeste 4 Oeste 0 -- -- 36
2019-10-06 20:00:00 18.9 4 Noroeste 14 Noroeste 0 -- -- 34
2019-10-06 19:00:00 21.4 10 Noroeste 20 Noroeste 0 -- -- 32
2019-10-06 18:00:00 21.7 9 Noroeste 19 Noroeste 0 -- -- 34
2019-10-06 17:00:00 21.4 9 Noroeste 19 Noroeste 0 -- -- 37
2019-10-06 16:00:00 21.3 8 Noroeste 18 Noroeste 0 -- -- 39
2019-10-06 15:00:00 19.8 8 Norte 16 Norte 0 -- -- 43
2019-10-06 14:00:00 19.8 3 Sur 13 Sudeste 0 -- -- 48
2019-10-06 13:00:00 18.3 0 Calma 13 Este 0 -- -- 54
2019-10-06 12:00:00 15.5 5 Este 16 Este 0 -- -- 67
2019-10-06 11:00:00 13.2 8 Este 24 Este 0 -- -- 76
2019-10-06 10:00:00 12.1 13 Este 18 Este 0 -- -- 84
2019-10-06 09:00:00 9.4 13 Este 18 Este 0 -- -- 97
2019-10-06 08:00:00 9.2 13 Este 19 Este 0 -- -- 96
2019-10-06 07:00:00 9.5 12 Este 17 Este 0 -- -- 96
2019-10-06 06:00:00 8.9 3 Sudeste 12 Este 0 -- -- 94
2019-10-06 05:00:00 8.6 9 Este 11 Este 0 -- -- 91
2019-10-06 04:00:00 10.7 9 Sudeste 11 Sudeste 0 -- -- 81
2019-10-06 03:00:00 12.1 4 Sudeste 11 Sur 0 -- -- 68
2019-10-06 02:00:00 13 3 Sur 11 Sudeste 0 -- -- 61
2019-10-06 01:00:00 12.3 7 Noroeste 22 Oeste 0 -- -- 61
2019-10-06 00:00:00 14.6 16 Oeste 22 Oeste 0 -- -- 54
2019-10-05 23:00:00 13.9 12 Sudoeste 15 Oeste 0 -- -- 53
2019-10-05 22:00:00 15.6 8 Sudoeste 10 Oeste 0 -- -- 48
2019-10-05 21:00:00 16.1 10 Oeste 13 Oeste 0 -- -- 44
2019-10-05 20:00:00 18 10 Oeste 18 Oeste 0 -- -- 42
2019-10-05 19:00:00 21.9 12 Oeste 22 Oeste 0 -- -- 37
2019-10-05 18:00:00 22.6 14 Noroeste 22 Oeste 0 -- -- 38
2019-10-05 17:00:00 22.9 14 Oeste 26 Oeste 0 -- -- 38
2019-10-05 16:00:00 22 12 Noroeste 22 Noroeste 0 -- -- 41
2019-10-05 15:00:00 20.6 11 Oeste 19 Noroeste 0 -- -- 48
2019-10-05 14:00:00 19.1 6 Noroeste 13 Noroeste 0 -- -- 54
2019-10-05 13:00:00 17.1 3 Nordeste 13 Este 0 -- -- 65
2019-10-05 12:00:00 13 6 Este 14 Este 0 -- -- 95
2019-10-05 11:00:00 10.4 9 Este 13 Este 0 -- -- 97
2019-10-05 10:00:00 9.9 6 Este 13 Este 0 -- -- 97
2019-10-05 09:00:00 9.4 10 Este 13 Este 0 -- -- 97
2019-10-05 08:00:00 9.2 12 Este 17 Este 0 -- -- 97
2019-10-05 07:00:00 9.6 13 Este 17 Este 0 -- -- 97
2019-10-05 06:00:00 9.4 12 Este 18 Este 0 -- -- 97
2019-10-05 05:00:00 10.5 15 Este 21 Este 0 -- -- 96
2019-10-05 04:00:00 10.3 16 Este 20 Este 0 -- -- 96
2019-10-05 03:00:00 10.5 17 Este 20 Este 0 -- -- 95
2019-10-05 02:00:00 11.1 14 Este 19 Este 0 -- -- 92
2019-10-05 01:00:00 12 12 Este 14 Este 0 -- -- 84
2019-10-05 00:00:00 13.3 8 Este 18 Este 0 -- -- 68
2019-10-04 23:00:00 16.6 6 Oeste 9 Sudoeste 0 -- -- 59
2019-10-04 22:00:00 16.7 3 Sudoeste 6 Oeste 0 -- -- 54
2019-10-04 21:00:00 18 4 Oeste 12 Oeste 0 -- -- 51
2019-10-04 20:00:00 18.9 11 Oeste 21 Oeste 0 -- -- 47
2019-10-04 19:00:00 22.4 10 Oeste 21 Noroeste 0 -- -- 44
2019-10-04 18:00:00 22.7 8 Oeste 27 Sudoeste 0 -- -- 41
2019-10-04 17:00:00 22.7 6 Oeste 23 Oeste 0 -- -- 42
2019-10-04 16:00:00 21.5 14 Oeste 23 Oeste 0 -- -- 44
2019-10-04 15:00:00 21.7 7 Oeste 19 Noroeste 0 -- -- 45
2019-10-04 14:00:00 19.7 8 Noroeste 16 Noroeste 0 -- -- 48
2019-10-04 13:00:00 18 6 Norte 13 Norte 0 -- -- 51
2019-10-04 12:00:00 17 5 Noroeste 12 Norte 0 -- -- 54
2019-10-04 11:00:00 15.9 2 Sudoeste 9 Oeste 0 -- -- 60
2019-10-04 10:00:00 12.5 6 Oeste 10 Sudoeste 0 -- -- 81
2019-10-04 09:00:00 8.1 6 Sudoeste 11 Sudoeste 0 -- -- 97
2019-10-04 08:00:00 8 7 Sudoeste 15 Sudoeste 0 -- -- 95
2019-10-04 07:00:00 8.2 13 Sudoeste 14 Sudoeste 0 -- -- 94
2019-10-04 06:00:00 9.1 5 Oeste 12 Sudoeste 0 -- -- 84
2019-10-04 05:00:00 8.3 8 Oeste 13 Sudoeste 0 -- -- 76
2019-10-04 04:00:00 10.8 4 Sudeste 16 Sudeste 0 -- -- 61
2019-10-04 03:00:00 12.3 7 Sudeste 15 Sudeste 0 -- -- 59
2019-10-04 02:00:00 11.7 9 Este 17 Oeste 0 -- -- 61
2019-10-04 01:00:00 12.8 14 Oeste 18 Oeste 0 -- -- 57
2019-10-04 00:00:00 13 10 Oeste 13 Sudoeste 0 -- -- 44
2019-10-03 23:00:00 15.5 9 Sudoeste 12 Sudoeste 0 -- -- 38
2019-10-03 22:00:00 17.6 6 Sudoeste 8 Sudoeste 0 -- -- 36
2019-10-03 21:00:00 17.9 7 Sudoeste 10 Sudoeste 0 -- -- 35
2019-10-03 20:00:00 18.6 10 Oeste 18 Oeste 0 -- -- 34
2019-10-03 19:00:00 22.3 15 Oeste 20 Oeste 0 -- -- 30
2019-10-03 18:00:00 22.7 14 Oeste 24 Oeste 0 -- -- 30
2019-10-03 17:00:00 22.3 14 Oeste 24 Oeste 0 -- -- 31
2019-10-03 16:00:00 21.4 14 Oeste 28 Oeste 0 -- -- 33
2019-10-03 15:00:00 20.5 18 Oeste 29 Oeste 0 -- -- 37
2019-10-03 14:00:00 18.9 17 Oeste 26 Oeste 0 -- -- 43
2019-10-03 13:00:00 17.3 14 Noroeste 22 Oeste 0 -- -- 49
2019-10-03 12:00:00 15.5 4 Oeste 12 Oeste 0 -- -- 57
2019-10-03 11:00:00 13.3 5 Oeste 10 Oeste 0 -- -- 68
2019-10-03 10:00:00 10.6 0 Calma 5 Nordeste 0 -- -- 86
2019-10-03 09:00:00 6.9 4 Nordeste 6 Nordeste 0 -- -- 97
2019-10-03 08:00:00 6.7 2 Norte 4 Noroeste 0 -- -- 96
2019-10-03 07:00:00 6.7 2 Oeste 5 Oeste 0 -- -- 95
2019-10-03 06:00:00 7.4 0 Calma 9 Este 0 -- -- 92
2019-10-03 05:00:00 8 8 Este 13 Este 0 -- -- 90
2019-10-03 04:00:00 8.8 9 Este 19 Este 0 -- -- 87
2019-10-03 03:00:00 9.2 15 Este 21 Este 0 -- -- 88
2019-10-03 02:00:00 9.7 17 Este 26 Este 0 -- -- 86
2019-10-03 01:00:00 9.9 19 Este 25 Este 0 -- -- 84
2019-10-03 00:00:00 10.4 18 Este 23 Este 0 -- -- 77
2019-10-02 23:00:00 12 18 Este 24 Este 0 -- -- 68
2019-10-02 22:00:00 12.4 14 Este 23 Este 0 -- -- 61
2019-10-02 21:00:00 13.9 15 Este 19 Este 0 -- -- 48
2019-10-02 20:00:00 16.3 6 Nordeste 9 Nordeste 0 -- -- 41
2019-10-02 19:00:00 19.2 3 Noroeste 12 Nordeste 0 -- -- 37
2019-10-02 18:00:00 19.2 6 Norte 16 Norte 0 -- -- 37
2019-10-02 17:00:00 19.9 4 Nordeste 14 Nordeste 0 -- -- 38
2019-10-02 16:00:00 18.9 5 Norte 18 Nordeste 0 -- -- 39
2019-10-02 15:00:00 18 10 Norte 23 Norte 0 -- -- 43
2019-10-02 14:00:00 17.3 4 Norte 18 Nordeste 0 -- -- 45
2019-10-02 13:00:00 15.6 10 Noroeste 22 Noroeste 0 -- -- 50
2019-10-02 12:00:00 13.9 7 Noroeste 16 Noroeste 0 -- -- 60
2019-10-02 11:00:00 11.4 13 Noroeste 18 Oeste 0 -- -- 68
2019-10-02 10:00:00 10 15 Oeste 20 Oeste 0 -- -- 78
2019-10-02 09:00:00 7.7 10 Oeste 16 Oeste 0 -- -- 91
2019-10-02 08:00:00 6.8 12 Oeste 19 Oeste 0 -- -- 93
2019-10-02 07:00:00 7.5 15 Oeste 22 Oeste 0 -- -- 91
2019-10-02 06:00:00 8.1 19 Oeste 23 Oeste 0 -- -- 87
2019-10-02 05:00:00 8.5 17 Noroeste 25 Oeste 0 -- -- 83
2019-10-02 04:00:00 9.8 21 Noroeste 29 Noroeste 0 -- -- 77
2019-10-02 03:00:00 10.3 11 Noroeste 25 Noroeste 0 -- -- 75
2019-10-02 02:00:00 10.6 15 Noroeste 30 Noroeste 0 -- -- 72
2019-10-02 01:00:00 12.2 25 Noroeste 33 Noroeste 0 -- -- 67
2019-10-02 00:00:00 12.5 17 Oeste 35 Noroeste 0 -- -- 64
2019-10-01 23:00:00 13.8 22 Noroeste 31 Noroeste 0 -- -- 58
2019-10-01 22:00:00 14.8 20 Noroeste 28 Noroeste 0 -- -- 52
2019-10-01 21:00:00 16.3 13 Oeste 22 Noroeste 0 -- -- 46
2019-10-01 20:00:00 18.6 17 Noroeste 34 Oeste 0 -- -- 39
2019-10-01 19:00:00 22.1 21 Oeste 34 Oeste 0 -- -- 35
2019-10-01 18:00:00 22.9 22 Oeste 36 Oeste 0 -- -- 35
2019-10-01 17:00:00 22.7 22 Oeste 37 Oeste 0 -- -- 38
2019-10-01 16:00:00 21.7 24 Oeste 37 Oeste 0 -- -- 41
2019-10-01 15:00:00 19.9 21 Oeste 30 Oeste 0 -- -- 48
2019-10-01 14:00:00 19.9 15 Oeste 30 Oeste 0 -- -- 52
2019-10-01 13:00:00 19.1 17 Oeste 30 Oeste 0 -- -- 55
2019-10-01 12:00:00 17.2 18 Oeste 28 Noroeste 0 -- -- 61
2019-10-01 11:00:00 16.1 15 Oeste 28 Oeste 0 -- -- 70
2019-10-01 10:00:00 14.6 19 Oeste 28 Oeste 0 -- -- 81
2019-10-01 09:00:00 12.9 20 Oeste 29 Oeste 0 -- -- 89
2019-10-01 08:00:00 12.5 17 Oeste 24 Oeste 0 -- -- 88
2019-10-01 07:00:00 12.4 15 Oeste 21 Oeste 0 -- -- 86
2019-10-01 06:00:00 11.6 11 Sudoeste 16 Oeste 0 -- -- 84
2019-10-01 05:00:00 13 11 Sudoeste 13 Sudoeste 0 -- -- 77
2019-10-01 04:00:00 12.6 8 Sudoeste 13 Oeste 0 -- -- 76
2019-10-01 03:00:00 12.7 11 Sudoeste 16 Sudoeste 0 -- -- 73
2019-10-01 02:00:00 12.7 12 Sudoeste 14 Oeste 0 -- -- 69
2019-10-01 01:00:00 15.8 13 Oeste 17 Oeste 0 -- -- 57
2019-10-01 00:00:00 17.5 14 Oeste 22 Oeste 0 -- -- 51
2019-09-30 23:00:00 18.5 15 Oeste 19 Oeste 0 -- -- 50
2019-09-30 22:00:00 17.1 13 Sudoeste 15 Sudoeste 0 -- -- 51
2019-09-30 21:00:00 21.1 6 Sudoeste 9 Oeste 0 -- -- 42
2019-09-30 20:00:00 21.9 10 Oeste 19 Oeste 0 -- -- 40
2019-09-30 19:00:00 25.2 13 Oeste 40 Sudoeste 0 -- -- 37
2019-09-30 18:00:00 26.1 14 Oeste 26 Oeste 0 -- -- 35
2019-09-30 17:00:00 24.9 15 Oeste 26 Oeste 0 -- -- 38
2019-09-30 16:00:00 24.7 6 Sudoeste 21 Oeste 0 -- -- 41
2019-09-30 15:00:00 24.1 7 Oeste 17 Oeste 0 -- -- 45
2019-09-30 14:00:00 22.6 8 Oeste 19 Sudoeste 0 -- -- 48
2019-09-30 13:00:00 21.8 5 Este 10 Este 0 -- -- 55
2019-09-30 12:00:00 19.6 4 Noroeste 10 Noroeste 0 -- -- 62
2019-09-30 11:00:00 17.1 4 Norte 9 Noroeste 0 -- -- 75
2019-09-30 10:00:00 16.2 0 Calma 8 Sudoeste 0 -- -- 80
2019-09-30 09:00:00 11.6 6 Sudoeste 9 Sudoeste 0 -- -- 96
2019-09-30 08:00:00 9.3 8 Oeste 10 Sudoeste 0 -- -- 96
2019-09-30 07:00:00 9.9 7 Sudoeste 33 Oeste 0 -- -- 95
2019-09-30 06:00:00 11.6 11 Oeste 12 Noroeste 0 -- -- 93
2019-09-30 05:00:00 12.8 12 Noroeste 17 Noroeste 0 -- -- 91
2019-09-30 04:00:00 12.7 12 Oeste 17 Noroeste 0 -- -- 90
2019-09-30 03:00:00 14 15 Noroeste 19 Noroeste 0 -- -- 86
2019-09-30 02:00:00 14.4 17 Noroeste 19 Noroeste 0 -- -- 86
2019-09-30 01:00:00 15.2 14 Noroeste 19 Noroeste 0 -- -- 83
2019-09-30 00:00:00 16.1 18 Noroeste 32 Oeste 0 -- -- 74
2019-09-29 23:00:00 18.5 20 Oeste 31 Oeste 0 -- -- 52
2019-09-29 22:00:00 19.2 21 Oeste 29 Oeste 0 -- -- 44
2019-09-29 21:00:00 19.6 19 Oeste 25 Oeste 0 -- -- 36
2019-09-29 20:00:00 22.1 19 Oeste 31 Oeste 0 -- -- 30
2019-09-29 19:00:00 24.9 22 Oeste 36 Oeste 0 -- -- 27
2019-09-29 18:00:00 26 24 Oeste 34 Oeste 0 -- -- 26
2019-09-29 17:00:00 26.2 24 Oeste 38 Oeste 0 -- -- 26
2019-09-29 16:00:00 26 24 Oeste 40 Sudoeste 0 -- -- 26
2019-09-29 15:00:00 24.8 24 Oeste 35 Oeste 0 -- -- 27
2019-09-29 14:00:00 23.9 20 Oeste 29 Oeste 0 -- -- 27
2019-09-29 13:00:00 22.2 19 Oeste 29 Oeste 0 -- -- 25
2019-09-29 12:00:00 19.6 12 Oeste 26 Sudoeste 0 -- -- 40
2019-09-29 11:00:00 17.7 16 Sudoeste 21 Sudoeste 0 -- -- 44
2019-09-29 10:00:00 13.6 10 Sudoeste 14 Sudoeste 0 -- -- 60
2019-09-29 09:00:00 9.5 12 Sudoeste 14 Sudoeste 0 -- -- 70
2019-09-29 08:00:00 8.3 10 Sudoeste 38 Sur 0 -- -- 67
2019-09-29 07:00:00 9.5 10 Sudoeste 14 Sudoeste 0 -- -- 59
2019-09-29 06:00:00 10.4 14 Sudoeste 17 Sudoeste 0 -- -- 57
2019-09-29 05:00:00 11.5 10 Sudoeste 13 Sudoeste 0 -- -- 48
2019-09-29 04:00:00 10.9 10 Sudoeste 14 Sudoeste 0 -- -- 48
2019-09-29 03:00:00 11.6 13 Sudoeste 14 Sudoeste 0 -- -- 44
2019-09-29 02:00:00 12.1 12 Sudoeste 14 Sudoeste 0 -- -- 45
2019-09-29 01:00:00 11.9 13 Sudoeste 14 Sudoeste 0 -- -- 42
2019-09-29 00:00:00 16 8 Sudoeste 13 Sudoeste 0 -- -- 31
2019-09-28 23:00:00 16.7 10 Sudoeste 12 Sudoeste 0 -- -- 30
2019-09-28 22:00:00 18.1 3 Sudoeste 7 Noroeste 0 -- -- 29
2019-09-28 21:00:00 17 8 Oeste 12 Oeste 0 -- -- 31
2019-09-28 20:00:00 20.3 9 Oeste 17 Noroeste 0 -- -- 27
2019-09-28 19:00:00 23.7 11 Noroeste 20 Oeste 0 -- -- 26
2019-09-28 18:00:00 24.4 11 Oeste 19 Oeste 0 -- -- 27
2019-09-28 17:00:00 24 5 Oeste 17 Oeste 0 -- -- 31
2019-09-28 16:00:00 23.1 4 Oeste 19 Oeste 0 -- -- 34
2019-09-28 15:00:00 21.8 3 Oeste 14 Noroeste 0 -- -- 41
2019-09-28 14:00:00 20 4 Oeste 17 Oeste 0 -- -- 48
2019-09-28 13:00:00 17.6 8 Noroeste 12 Noroeste 0 -- -- 55
2019-09-28 12:00:00 16 2 Sudoeste 14 Sudoeste 0 -- -- 72
2019-09-28 11:00:00 11.3 4 Este 10 Sudeste 0 -- -- 98
2019-09-28 10:00:00 10 8 Este 14 Sudeste 0 -- -- 98
2019-09-28 09:00:00 9.6 8 Este 13 Este 0 -- -- 98
2019-09-28 08:00:00 7.2 9 Sudeste 10 Sudeste 0 -- -- 98
2019-09-28 07:00:00 8.6 5 Sudeste 7 Sudeste 0 -- -- 94
2019-09-28 06:00:00 8.8 0 Calma 5 Este 0 -- -- 93
2019-09-28 05:00:00 9.5 0 Calma 7 Noroeste 0 -- -- 91
2019-09-28 04:00:00 9.2 6 Noroeste 11 Oeste 0 -- -- 90
2019-09-28 03:00:00 10.5 0 Calma 11 Oeste 0 -- -- 87
2019-09-28 02:00:00 11 10 Oeste 13 Noroeste 0 -- -- 83
2019-09-28 01:00:00 12 9 Noroeste 18 Oeste 0 -- -- 79
2019-09-28 00:00:00 12.9 14 Oeste 19 Noroeste 0 -- -- 76
2019-09-27 23:00:00 14.4 14 Noroeste 20 Noroeste 0 -- -- 71
2019-09-27 22:00:00 15.5 15 Noroeste 19 Noroeste 0 -- -- 66
2019-09-27 21:00:00 16.7 12 Noroeste 19 Norte 0 -- -- 59
2019-09-27 20:00:00 19.6 9 Oeste 20 Oeste 0 -- -- 40
2019-09-27 19:00:00 22.1 15 Oeste 24 Oeste 0 -- -- 34
2019-09-27 18:00:00 22.6 15 Oeste 30 Oeste 0 -- -- 34
2019-09-27 17:00:00 23 19 Oeste 30 Oeste 0 -- -- 33
2019-09-27 16:00:00 22.8 11 Oeste 25 Oeste 0 -- -- 36
2019-09-27 15:00:00 21.8 13 Noroeste 32 Oeste 0 -- -- 37
2019-09-27 14:00:00 20.1 14 Oeste 27 Oeste 0 -- -- 43
2019-09-27 13:00:00 19.4 14 Noroeste 21 Oeste 0 -- -- 51
2019-09-27 12:00:00 17.5 10 Oeste 19 Oeste 0 -- -- 56
2019-09-27 11:00:00 16 8 Oeste 16 Noroeste 0 -- -- 62
2019-09-27 10:00:00 13.6 11 Oeste 14 Oeste 0 -- -- 70
2019-09-27 09:00:00 10.1 12 Oeste 14 Oeste 0 -- -- 85
2019-09-27 08:00:00 6.6 13 Sudoeste 16 Sudoeste 0 -- -- 91
2019-09-27 07:00:00 7.2 12 Sudoeste 14 Sudoeste 0 -- -- 88
2019-09-27 06:00:00 8.7 9 Oeste 16 Noroeste 0 -- -- 78
2019-09-27 05:00:00 10.7 14 Noroeste 18 Noroeste 0 -- -- 72
2019-09-27 04:00:00 10.7 14 Oeste 17 Oeste 0 -- -- 71
2019-09-27 03:00:00 12.2 16 Oeste 23 Noroeste 0 -- -- 61
2019-09-27 02:00:00 13.2 20 Noroeste 25 Noroeste 0 -- -- 52
2019-09-27 01:00:00 13.8 18 Noroeste 19 Oeste 0 -- -- 49
2019-09-27 00:00:00 15.1 15 Oeste 22 Oeste 0 -- -- 47
2019-09-26 23:00:00 14 17 Oeste 19 Oeste 0 -- -- 48
2019-09-26 22:00:00 14.9 13 Sudoeste 14 Sudoeste 0 -- -- 41
2019-09-26 21:00:00 18.5 9 Oeste 12 Oeste 0 -- -- 34
2019-09-26 20:00:00 19.9 11 Oeste 17 Oeste 0 -- -- 33
2019-09-26 19:00:00 23.5 12 Oeste 24 Oeste 0 -- -- 27
2019-09-26 18:00:00 23.9 15 Oeste 26 Oeste 0 -- -- 26
2019-09-26 17:00:00 23.7 18 Oeste 28 Oeste 0 -- -- 27
2019-09-26 16:00:00 22.8 18 Oeste 26 Oeste 0 -- -- 34
2019-09-26 15:00:00 21.5 13 Oeste 29 Oeste 0 -- -- 40
2019-09-26 14:00:00 20.6 16 Oeste 28 Sudoeste 0 -- -- 44
2019-09-26 13:00:00 19.3 17 Sudoeste 28 Sudoeste 0 -- -- 54
2019-09-26 12:00:00 17.6 11 Sudoeste 20 Oeste 0 -- -- 61
2019-09-26 11:00:00 15.3 7 Sudoeste 10 Oeste 0 -- -- 68
2019-09-26 10:00:00 12.8 0 Calma 11 Sudoeste 0 -- -- 85
2019-09-26 09:00:00 9.3 8 Sudoeste 11 Sudoeste 0 -- -- 95
2019-09-26 08:00:00 8.6 10 Sudoeste 13 Sudoeste 0 -- -- 95
2019-09-26 07:00:00 8.8 8 Sudoeste 12 Sur 0 -- -- 95
2019-09-26 06:00:00 8.8 5 Sudoeste 8 Oeste 0 -- -- 93
2019-09-26 05:00:00 9 6 Sudoeste 10 Oeste 0 -- -- 92
2019-09-26 04:00:00 10.1 4 Oeste 12 Oeste 0 -- -- 87
2019-09-26 03:00:00 11.1 8 Oeste 13 Oeste 0 -- -- 85
2019-09-26 02:00:00 11.3 12 Oeste 16 Oeste 0 -- -- 85
2019-09-26 01:00:00 10.8 13 Oeste 15 Oeste 0 -- -- 82
2019-09-26 00:00:00 11.6 10 Sudoeste 19 Sudoeste 0 -- -- 75
2019-09-25 23:00:00 12.6 12 Sudoeste 14 Sudoeste 0 -- -- 68
2019-09-25 22:00:00 14.2 12 Sudoeste 14 Sudoeste 0 -- -- 60
2019-09-25 21:00:00 14.9 8 Sudoeste 13 Oeste 0 -- -- 54
2019-09-25 20:00:00 17.4 10 Oeste 19 Oeste 0 -- -- 47
2019-09-25 19:00:00 18.6 15 Oeste 27 Sudoeste 0 -- -- 44
2019-09-25 18:00:00 18.9 15 Oeste 26 Oeste 0 -- -- 44
2019-09-25 17:00:00 18.8 15 Oeste 29 Oeste 0 -- -- 45
2019-09-25 16:00:00 18.6 14 Oeste 23 Oeste 0 -- -- 46
2019-09-25 15:00:00 17.8 14 Oeste 27 Noroeste 0 -- -- 48
2019-09-25 14:00:00 16.7 14 Noroeste 21 Oeste 0 -- -- 52
2019-09-25 13:00:00 15.7 10 Oeste 21 Oeste 0 -- -- 58
2019-09-25 12:00:00 13.9 10 Oeste 20 Noroeste 0 -- -- 68
2019-09-25 11:00:00 11.8 15 Noroeste 25 Noroeste 0 -- -- 78
2019-09-25 10:00:00 10.3 17 Noroeste 21 Noroeste 0 -- -- 84
2019-09-25 09:00:00 8.9 13 Noroeste 22 Oeste 0 -- -- 89
2019-09-25 08:00:00 7.8 17 Oeste 24 Oeste 0 -- -- 89
2019-09-25 07:00:00 8 17 Oeste 24 Oeste 0 -- -- 87
2019-09-25 06:00:00 8.5 14 Oeste 30 Oeste 0 -- -- 85
2019-09-25 05:00:00 9.7 21 Oeste 31 Oeste 0 -- -- 78
2019-09-25 04:00:00 9.8 21 Oeste 29 Oeste 0 -- -- 78
2019-09-25 03:00:00 10.6 18 Oeste 28 Oeste 0 -- -- 74
2019-09-25 02:00:00 10.6 15 Oeste 22 Oeste 0 -- -- 77
2019-09-25 01:00:00 11.6 18 Oeste 26 Oeste 0 -- -- 74
2019-09-25 00:00:00 13 19 Oeste 29 Oeste 0 -- -- 71
2019-09-24 23:00:00 13.9 17 Oeste 31 Oeste 0 -- -- 66
2019-09-24 22:00:00 15 20 Oeste 31 Oeste 0 -- -- 59
2019-09-24 21:00:00 16.5 24 Oeste 35 Oeste 0 -- -- 52
2019-09-24 20:00:00 18.7 27 Oeste 42 Oeste 0 -- -- 48
2019-09-24 19:00:00 19.6 37 Oeste 51 Oeste 0 -- -- 47
2019-09-24 18:00:00 20.8 41 Oeste 54 Oeste 0 -- -- 49
2019-09-24 17:00:00 20.6 40 Oeste 60 Oeste 0 -- -- 51
2019-09-24 16:00:00 21 43 Oeste 56 Oeste 0 -- -- 52
2019-09-24 15:00:00 21.2 38 Oeste 53 Oeste 0 -- -- 54
2019-09-24 14:00:00 20.3 37 Oeste 46 Oeste 0 -- -- 60
2019-09-24 13:00:00 18.6 32 Oeste 45 Oeste 0 -- -- 68
2019-09-24 12:00:00 17.7 28 Sudoeste 37 Sudoeste 0 -- -- 72
2019-09-24 11:00:00 15.7 22 Oeste 34 Sudoeste 0 -- -- 81
2019-09-24 10:00:00 14.2 20 Oeste 26 Oeste 0 -- -- 88
2019-09-24 09:00:00 12.5 20 Sudoeste 26 Sudoeste 0 -- -- 88
2019-09-24 08:00:00 10.8 19 Oeste 26 Oeste 0 -- -- 94
2019-09-24 07:00:00 10.7 19 Sudoeste 35 Oeste 0 -- -- 93
2019-09-24 06:00:00 11.7 24 Oeste 33 Oeste 0 -- -- 89
2019-09-24 05:00:00 12.2 26 Oeste 33 Oeste 0 -- -- 86
2019-09-24 04:00:00 11.2 19 Sudoeste 26 Sudoeste 0 -- -- 86
2019-09-24 03:00:00 11 14 Oeste 23 Oeste 0 -- -- 84
2019-09-24 02:00:00 11.5 18 Sudoeste 22 Sudoeste 0 -- -- 81
2019-09-24 01:00:00 11.7 10 Sudoeste 16 Oeste 0 -- -- 77
2019-09-24 00:00:00 13.3 14 Oeste 19 Oeste 0 -- -- 70
2019-09-23 23:00:00 13 15 Sudoeste 23 Sudoeste 0 -- -- 72
2019-09-23 22:00:00 14.2 16 Sudoeste 20 Sudoeste 0 -- -- 69
2019-09-23 21:00:00 15.7 7 Sudoeste 14 Oeste 0 -- -- 58
2019-09-23 20:00:00 17.5 7 Sudoeste 17 Sudoeste 0 -- -- 53
2019-09-23 19:00:00 18.9 15 Sudoeste 25 Oeste 0 -- -- 44
2019-09-23 18:00:00 20.1 15 Sudoeste 26 Sudoeste 0 -- -- 42
2019-09-23 17:00:00 19.2 18 Oeste 28 Sudoeste 0 -- -- 45
2019-09-23 16:00:00 19.4 18 Sudoeste 29 Oeste 0 -- -- 44
2019-09-23 15:00:00 18.7 16 Sudoeste 31 Oeste 0 -- -- 48
2019-09-23 14:00:00 16.1 22 Sudoeste 30 Oeste 0 -- -- 58
2019-09-23 13:00:00 16.5 19 Sudoeste 27 Sudoeste 0 -- -- 57
2019-09-23 12:00:00 14.1 14 Sudoeste 25 Sudoeste 0 -- -- 74
2019-09-23 11:00:00 11.8 18 Sudoeste 22 Sudoeste 0 -- -- 89
2019-09-23 10:00:00 9.8 17 Sur 21 Sur 0 -- -- 95
2019-09-23 09:00:00 8.4 14 Sur 19 Sur 0 -- -- 95
2019-09-23 08:00:00 7.3 14 Sudoeste 16 Sudoeste 0 -- -- 95
2019-09-23 07:00:00 7 7 Sudoeste 12 Sudoeste 0 -- -- 94
2019-09-23 06:00:00 7.4 7 Sudoeste 9 Sudoeste 0 -- -- 94
2019-09-23 05:00:00 8.5 6 Sudoeste 21 Oeste 0 -- -- 91
2019-09-23 04:00:00 10.1 16 Oeste 21 Oeste 0 -- -- 82
2019-09-23 03:00:00 10.6 17 Oeste 23 Oeste 0 -- -- 78
2019-09-23 02:00:00 11.3 18 Oeste 28 Oeste 0 -- -- 74
2019-09-23 01:00:00 11.7 18 Oeste 25 Oeste 0 -- -- 72
2019-09-23 00:00:00 11.9 17 Oeste 23 Oeste 0 -- -- 71
2019-09-22 23:00:00 11.4 16 Oeste 18 Oeste 0 -- -- 72
2019-09-22 22:00:00 11.2 10 Sudoeste 17 Sudoeste 0 -- -- 71
2019-09-22 21:00:00 12.1 14 Oeste 15 Oeste 0 -- -- 61
2019-09-22 20:00:00 15 15 Oeste 24 Oeste 0 -- -- 47
2019-09-22 19:00:00 17.5 18 Oeste 28 Oeste 0 -- -- 41
2019-09-22 18:00:00 17.4 19 Oeste 32 Oeste 0 -- -- 42
2019-09-22 17:00:00 16.8 22 Oeste 38 Oeste 0 -- -- 44
2019-09-22 16:00:00 16.7 25 Oeste 37 Oeste 0 -- -- 48
2019-09-22 15:00:00 17.1 25 Oeste 41 Oeste 0 -- -- 54
2019-09-22 14:00:00 15.7 25 Oeste 36 Oeste 0 -- -- 60
2019-09-22 13:00:00 15.4 24 Oeste 37 Oeste 0 -- -- 64
2019-09-22 12:00:00 14 23 Oeste 35 Oeste 0 -- -- 75
2019-09-22 11:00:00 12.6 18 Sudoeste 27 Sudoeste 0 -- -- 86
2019-09-22 10:00:00 12.2 13 Sudoeste 20 Sudoeste 0 -- -- 91
2019-09-22 09:00:00 9.7 20 Sudoeste 25 Sudoeste 0 -- -- 97
2019-09-22 08:00:00 9.2 17 Sudoeste 25 Sudoeste 0 -- -- 96
2019-09-22 07:00:00 9.6 18 Sudoeste 30 Oeste 0 -- -- 95
2019-09-22 06:00:00 10.3 18 Oeste 31 Oeste 0 -- -- 94
2019-09-22 05:00:00 10.8 21 Oeste 33 Oeste 0 -- -- 94
2019-09-22 04:00:00 10.9 23 Oeste 38 Oeste 0.2 -- -- 94
2019-09-22 03:00:00 10.8 29 Oeste 42 Oeste 6 -- -- 97
2019-09-22 02:00:00 13.8 16 Sudoeste 26 Sudoeste 3 -- -- 97
2019-09-22 01:00:00 14.2 17 Sur 27 Sur 0.2 -- -- 97
2019-09-22 00:00:00 14.4 19 Sudoeste 43 Sudoeste 0.2 -- -- 96
2019-09-21 23:00:00 15.1 30 Sudoeste 41 Sudoeste 0 -- -- 91
2019-09-21 22:00:00 15.1 27 Sudoeste 39 Sudoeste 0 -- -- 89
2019-09-21 21:00:00 15.9 27 Sudoeste 42 Sudoeste 0 -- -- 84
2019-09-21 20:00:00 16.7 30 Sudoeste 41 Sudoeste 0 -- -- 78
2019-09-21 19:00:00 17.2 20 Sur 34 Sur 0 -- -- 78
2019-09-21 18:00:00 17.8 25 Sur 36 Sur 0 -- -- 77
2019-09-21 17:00:00 17 26 Sur 36 Sur 0.1 -- -- 89
2019-09-21 16:00:00 15.1 25 Sudoeste 37 Sudoeste 0.1 -- -- 94
2019-09-21 15:00:00 16.9 30 Sudoeste 46 Sudoeste 0 -- -- 77
2019-09-21 14:00:00 16.5 28 Sudoeste 37 Sudoeste 0 -- -- 79
2019-09-21 13:00:00 15.7 19 Sudoeste 40 Sudoeste 0 -- -- 82
2019-09-21 12:00:00 17.4 21 Sudoeste 30 Sudoeste 0 -- -- 69
2019-09-21 11:00:00 16.7 21 Sur 28 Sur 0 -- -- 77
2019-09-21 10:00:00 14.7 18 Sur 25 Sur 0 -- -- 88
2019-09-21 09:00:00 14.4 15 Sur 20 Sur 0 -- -- 90
2019-09-21 08:00:00 13.6 14 Sur 17 Sur 0 -- -- 94
2019-09-21 07:00:00 14.1 12 Sudoeste 21 Sudoeste 0 -- -- 94
2019-09-21 06:00:00 14.1 10 Sudoeste 15 Sudoeste 0 -- -- 94
2019-09-21 05:00:00 13.9 12 Sudoeste 19 Sur 0 -- -- 91
2019-09-21 04:00:00 13.7 12 Sur 15 Sur 0 -- -- 93
2019-09-21 03:00:00 14.3 10 Sudeste 19 Sudeste 0 -- -- 92
2019-09-21 02:00:00 14.7 13 Sudeste 23 Sudeste 0.1 -- -- 94
2019-09-21 01:00:00 14.7 8 Sudeste 17 Sudeste 0 -- -- 93
2019-09-21 00:00:00 15 3 Sudeste 33 Sur 0.5 -- -- 92
2019-09-20 23:00:00 15.5 23 Sudoeste 37 Sudoeste 2 -- -- 89
2019-09-20 22:00:00 16.6 5 Oeste 19 Noroeste 0 -- -- 82
2019-09-20 21:00:00 16.8 8 Noroeste 51 Sudoeste 2.2 -- -- 86
2019-09-20 20:00:00 17.2 28 Sudoeste 63 Sudoeste 6.7 -- -- 68
2019-09-20 19:00:00 23.1 10 Oeste 28 Sudoeste 0 -- -- 42
2019-09-20 18:00:00 23.6 22 Sudoeste 39 Sudoeste 0 -- -- 37
2019-09-20 17:00:00 24.8 26 Sudoeste 48 Sur 0 -- -- 36
2019-09-20 16:00:00 26.8 26 Sur 40 Sudoeste 0 -- -- 34
2019-09-20 15:00:00 25.3 20 Sur 40 Sudoeste 0 -- -- 37
2019-09-20 14:00:00 25.4 25 Sudoeste 37 Sur 0 -- -- 38
2019-09-20 13:00:00 24 15 Sur 27 Sur 0 -- -- 45
2019-09-20 12:00:00 21.8 12 Sudeste 22 Sudeste 0 -- -- 57
2019-09-20 11:00:00 18.5 14 Sudeste 19 Sudeste 0 -- -- 70
2019-09-20 10:00:00 17.5 13 Sudeste 21 Sudeste 0 -- -- 75
2019-09-20 09:00:00 14.7 14 Sudeste 20 Sudeste 0 -- -- 86
2019-09-20 08:00:00 14.3 13 Sudeste 17 Sudeste 0 -- -- 88
2019-09-20 07:00:00 13.1 10 Este 13 Este 0 -- -- 90
2019-09-20 06:00:00 13.8 9 Este 15 Sudeste 0 -- -- 89
2019-09-20 05:00:00 14.4 12 Este 14 Este 0 -- -- 90
2019-09-20 04:00:00 14.7 9 Este 15 Este 0 -- -- 87
2019-09-20 03:00:00 15.7 13 Este 20 Este 0 -- -- 82
2019-09-20 02:00:00 16.1 14 Este 16 Este 0 -- -- 81
2019-09-20 01:00:00 16 14 Este 16 Este 0 -- -- 78
2019-09-20 00:00:00 17.1 13 Este 20 Este 0 -- -- 68
2019-09-19 23:00:00 17.7 13 Este 18 Este 0 -- -- 57
2019-09-19 22:00:00 17.8 9 Este 15 Nordeste 0 -- -- 53
2019-09-19 21:00:00 19.7 10 Nordeste 13 Nordeste 0 -- -- 46
2019-09-19 20:00:00 22.1 9 Nordeste 17 Nordeste 0 -- -- 40
2019-09-19 19:00:00 24.2 8 Nordeste 17 Nordeste 0 -- -- 34
2019-09-19 18:00:00 24.6 10 Norte 15 Norte 0 -- -- 33
2019-09-19 17:00:00 24.9 6 Nordeste 25 Nordeste 0 -- -- 34
2019-09-19 16:00:00 24.2 7 Norte 23 Este 0 -- -- 36
2019-09-19 15:00:00 24.5 9 Este 16 Sudeste 0 -- -- 38
2019-09-19 14:00:00 22.6 5 Nordeste 21 Sudeste 0 -- -- 43
2019-09-19 13:00:00 21.6 10 Este 27 Sudeste 0 -- -- 48
2019-09-19 12:00:00 19.7 13 Este 24 Este 0 -- -- 57
2019-09-19 11:00:00 17.3 14 Este 21 Este 0 -- -- 68
2019-09-19 10:00:00 14.8 15 Este 20 Este 0 -- -- 85
2019-09-19 09:00:00 12.4 11 Este 15 Este 0 -- -- 97
2019-09-19 08:00:00 11.5 7 Nordeste 16 Este 0 -- -- 98
2019-09-19 07:00:00 12 8 Nordeste 14 Nordeste 0 -- -- 98
2019-09-19 06:00:00 12.8 9 Este 18 Este 0 -- -- 95
2019-09-19 05:00:00 13.5 14 Este 18 Este 0 -- -- 95
2019-09-19 04:00:00 14.1 14 Este 15 Este 0 -- -- 94
2019-09-19 03:00:00 14.5 13 Este 18 Este 0 -- -- 92
2019-09-19 02:00:00 15 13 Este 21 Nordeste 0 -- -- 90
2019-09-19 01:00:00 15.8 15 Este 21 Este 0 -- -- 84
2019-09-19 00:00:00 16.7 14 Este 21 Este 0 -- -- 75
2019-09-18 23:00:00 17.9 14 Este 20 Este 0 -- -- 68
2019-09-18 22:00:00 18.2 9 Este 14 Nordeste 0 -- -- 77
2019-09-18 21:00:00 18.9 11 Nordeste 18 Nordeste 0 -- -- 71
2019-09-18 20:00:00 21 6 Norte 14 Nordeste 0 -- -- 48
2019-09-18 19:00:00 23.2 6 Nordeste 11 Norte 0 -- -- 42
2019-09-18 18:00:00 24 5 Oeste 17 Norte 0 -- -- 43
2019-09-18 17:00:00 23.5 7 Noroeste 17 Noroeste 0 -- -- 43
2019-09-18 16:00:00 22.6 5 Noroeste 16 Oeste 0 -- -- 46
2019-09-18 15:00:00 22.3 2 Sudoeste 13 Norte 0 -- -- 48
2019-09-18 14:00:00 20.9 4 Norte 10 Norte 0 -- -- 52
2019-09-18 13:00:00 19.6 3 Sudeste 14 Norte 0 -- -- 59
2019-09-18 12:00:00 17.5 7 Norte 14 Noroeste 0 -- -- 78
2019-09-18 11:00:00 17.6 4 Oeste 8 Sudoeste 0 -- -- 78
2019-09-18 10:00:00 15.5 5 Oeste 8 Oeste 0 -- -- 89
2019-09-18 09:00:00 13.8 6 Noroeste 8 Noroeste 0 -- -- 95
2019-09-18 08:00:00 13.6 0 Calma 6 Sur 0 -- -- 95
2019-09-18 07:00:00 13.3 2 Sur 8 Sur 0 -- -- 96
2019-09-18 06:00:00 12.9 4 Sur 12 Sudoeste 0 -- -- 96
2019-09-18 05:00:00 13.1 9 Sur 14 Sudoeste 0 -- -- 94
2019-09-18 04:00:00 13.6 12 Nordeste 32 Nordeste 0 -- -- 93
2019-09-18 03:00:00 13.7 21 Nordeste 26 Nordeste 0 -- -- 95
2019-09-18 02:00:00 13.9 5 Sudeste 23 Noroeste 0.1 -- -- 94
2019-09-18 01:00:00 13.8 13 Norte 20 Norte 1.9 -- -- 93
2019-09-18 00:00:00 14.6 15 Oeste 30 Oeste 0 -- -- 89
2019-09-17 23:00:00 15.2 24 Oeste 53 Sudoeste 1.3 -- -- 82
2019-09-17 22:00:00 19 33 Oeste 54 Oeste 0 -- -- 59
2019-09-17 21:00:00 21.4 7 Noroeste 8 Noroeste 0 -- -- 44